createdAt,value
2018-12-16T07:15:40.142Z,0.50
2018-12-16T07:18:12.565Z,0.60
2018-12-16T07:20:44.983Z,0.60
2018-12-16T07:23:24.143Z,0.60
2018-12-16T07:25:56.647Z,0.60
2018-12-16T07:28:29.410Z,0.70
2018-12-16T07:31:01.868Z,0.60
2018-12-16T07:33:34.443Z,0.60
2018-12-16T07:36:06.976Z,0.60
2018-12-16T07:38:39.399Z,0.60
2018-12-16T07:41:11.875Z,0.60
2018-12-16T07:43:44.393Z,0.60
2018-12-16T07:46:16.915Z,0.70
2018-12-16T07:48:49.331Z,0.60
2018-12-16T07:51:21.873Z,0.60
2018-12-16T07:53:54.372Z,0.60
2018-12-16T07:56:26.926Z,0.60
2018-12-16T07:58:59.323Z,0.60
2018-12-16T08:01:31.735Z,0.60
2018-12-16T08:04:04.433Z,0.60
2018-12-16T08:06:36.908Z,0.70
2018-12-16T08:09:09.636Z,0.70
2018-12-16T08:11:42.180Z,0.70
2018-12-16T08:14:15.151Z,0.80
2018-12-16T08:16:47.725Z,0.80
2018-12-16T08:19:20.135Z,0.80
2018-12-16T08:21:52.600Z,0.80
2018-12-16T08:24:25.020Z,0.80
2018-12-16T08:26:58.038Z,0.80
2018-12-16T08:29:30.478Z,0.80
2018-12-16T08:32:03.123Z,0.80
2018-12-16T08:34:35.547Z,0.80
2018-12-16T08:37:07.966Z,0.80
2018-12-16T08:39:40.686Z,0.80
2018-12-16T08:42:13.188Z,0.80
2018-12-16T08:44:45.602Z,0.80
2018-12-16T08:47:18.661Z,0.80
2018-12-16T08:49:51.086Z,0.80
2018-12-16T08:52:23.596Z,0.90
2018-12-16T08:54:56.015Z,0.90
2018-12-16T08:57:28.489Z,1.00
2018-12-16T09:00:00.903Z,1.10
2018-12-16T09:02:33.302Z,1.10
2018-12-16T09:05:05.725Z,1.00
2018-12-16T09:07:38.639Z,1.00
2018-12-16T09:10:11.404Z,0.90
2018-12-16T09:12:44.071Z,1.00
2018-12-16T09:15:16.768Z,0.90
2018-12-16T09:17:49.189Z,1.00
2018-12-16T09:20:21.595Z,1.00
2018-12-16T09:22:54.295Z,1.00
2018-12-16T09:25:26.719Z,1.00
2018-12-16T09:27:59.140Z,1.10
2018-12-16T09:30:31.552Z,1.00
2018-12-16T09:35:36.514Z,1.10
2018-12-16T09:38:09.249Z,1.20
2018-12-16T09:40:41.738Z,1.20
2018-12-16T09:43:14.196Z,1.20
2018-12-16T09:45:49.581Z,1.20
2018-12-16T09:48:21.939Z,1.20
2018-12-16T09:50:54.370Z,1.30
2018-12-16T09:53:26.791Z,1.40
2018-12-16T09:55:59.563Z,1.60
2018-12-16T09:58:32.214Z,1.70
2018-12-16T10:01:04.909Z,1.80
2018-12-16T10:03:37.314Z,1.80
2018-12-16T10:06:09.972Z,1.90
2018-12-16T10:08:42.645Z,1.90
2018-12-16T10:11:15.292Z,2.00
2018-12-16T10:13:48.522Z,2.00
2018-12-16T10:16:20.935Z,2.10
2018-12-16T10:18:53.879Z,2.00
2018-12-16T10:21:26.292Z,2.10
2018-12-16T10:23:58.989Z,2.20
2018-12-16T10:26:31.659Z,2.30
2018-12-16T10:29:04.104Z,2.30
2018-12-16T10:31:36.577Z,2.30
2018-12-16T10:34:09.050Z,2.20
2018-12-16T10:36:41.468Z,2.10
2018-12-16T10:39:13.897Z,2.10
2018-12-16T10:41:46.314Z,2.20
2018-12-16T10:44:19.313Z,2.20
2018-12-16T10:46:51.784Z,2.20
2018-12-16T10:49:24.197Z,2.20
2018-12-16T10:51:56.604Z,2.20
2018-12-16T10:54:29.329Z,2.20
2018-12-16T10:57:01.772Z,2.20
2018-12-16T10:59:34.187Z,2.20
2018-12-16T11:02:06.598Z,2.10
2018-12-16T11:04:39.044Z,2.10
2018-12-16T11:07:11.694Z,2.10
2018-12-16T11:09:44.584Z,2.10
2018-12-16T11:12:17.439Z,2.10
2018-12-16T11:14:49.898Z,2.10
2018-12-16T11:17:22.332Z,2.10
2018-12-16T11:19:54.791Z,2.20
2018-12-16T11:22:27.189Z,2.20
2018-12-16T11:25:05.761Z,2.20
2018-12-16T11:27:34.008Z,2.20
2018-12-16T11:30:06.436Z,2.10
2018-12-16T11:32:39.172Z,2.10
2018-12-16T11:35:11.992Z,2.10
2018-12-16T11:37:44.392Z,2.00
2018-12-16T11:40:16.810Z,2.00
2018-12-16T11:42:49.199Z,1.90
2018-12-16T11:45:21.635Z,1.90
2018-12-16T11:47:54.048Z,1.90
2018-12-16T11:50:26.459Z,2.00
2018-12-16T11:52:58.892Z,2.00
2018-12-16T11:55:31.339Z,2.00
2018-12-16T11:58:03.999Z,1.90
2018-12-16T12:00:36.432Z,1.90
2018-12-16T12:03:08.923Z,1.80
2018-12-16T12:05:41.976Z,1.80
2018-12-16T12:08:14.436Z,1.80
2018-12-16T12:10:47.113Z,1.80
2018-12-16T12:13:19.531Z,1.90
2018-12-16T12:15:51.970Z,1.90
2018-12-16T12:18:24.651Z,1.90
2018-12-16T12:20:57.079Z,1.90
2018-12-16T12:23:29.516Z,2.00
2018-12-16T12:26:01.956Z,2.10
2018-12-16T12:28:34.552Z,2.10
2018-12-16T12:31:06.976Z,2.10
2018-12-16T12:33:40.344Z,2.10
2018-12-16T12:36:12.852Z,2.10
2018-12-16T12:38:45.823Z,2.10
2018-12-16T12:41:19.170Z,2.10
2018-12-16T12:43:51.709Z,2.10
2018-12-16T12:46:24.394Z,2.20
2018-12-16T12:48:57.308Z,2.30
2018-12-16T12:51:29.988Z,2.30
2018-12-16T12:54:02.408Z,2.30
2018-12-16T12:56:34.843Z,2.30
2018-12-16T12:59:07.297Z,2.20
2018-12-16T13:01:39.690Z,2.30
2018-12-16T13:04:12.121Z,2.30
2018-12-16T13:06:44.504Z,2.20
2018-12-16T13:09:16.948Z,2.20
2018-12-16T13:11:49.368Z,2.30
2018-12-16T13:14:21.805Z,2.30
2018-12-16T13:16:54.207Z,2.30
2018-12-16T13:19:26.652Z,2.30
2018-12-16T13:21:59.094Z,2.30
2018-12-16T13:24:31.829Z,2.30
2018-12-16T13:27:04.520Z,2.30
2018-12-16T13:29:37.297Z,2.30
2018-12-16T13:32:09.957Z,2.30
2018-12-16T13:34:42.529Z,2.30
2018-12-16T13:37:14.968Z,2.30
2018-12-16T13:39:47.387Z,2.40
2018-12-16T13:42:19.808Z,2.40
2018-12-16T13:44:52.455Z,2.40
2018-12-16T13:47:25.221Z,2.40
2018-12-16T13:49:57.912Z,2.40
2018-12-16T13:52:30.328Z,2.50
2018-12-16T13:55:04.263Z,2.60
2018-12-16T13:57:36.977Z,2.60
2018-12-16T14:00:09.404Z,2.60
2018-12-16T14:02:41.892Z,2.60
2018-12-16T14:05:14.329Z,2.70
2018-12-16T14:07:47.094Z,2.70
2018-12-16T14:10:19.508Z,2.70
2018-12-16T14:12:51.929Z,2.80
2018-12-16T14:15:24.354Z,2.80
2018-12-16T14:17:57.080Z,2.80
2018-12-16T14:20:29.496Z,2.80
2018-12-16T14:23:01.965Z,2.80
2018-12-16T14:25:34.692Z,2.80
2018-12-16T14:28:07.360Z,2.80
2018-12-16T14:30:39.790Z,2.80
2018-12-16T14:33:12.531Z,2.80
2018-12-16T14:35:45.071Z,2.80
2018-12-16T14:38:17.591Z,2.80
2018-12-16T14:40:50.079Z,2.80
2018-12-16T14:43:22.573Z,2.80
2018-12-16T14:45:54.997Z,2.80
2018-12-16T14:48:27.652Z,2.80
2018-12-16T14:51:00.088Z,2.80
2018-12-16T14:53:32.549Z,2.80
2018-12-16T14:56:05.008Z,2.80
2018-12-16T14:58:37.585Z,2.80
2018-12-16T15:01:10.361Z,2.80
2018-12-16T15:03:43.140Z,2.80
2018-12-16T15:06:15.565Z,2.80
2018-12-16T15:08:48.002Z,2.80
2018-12-16T15:11:20.476Z,2.80
2018-12-16T15:13:52.952Z,2.70
2018-12-16T15:16:25.436Z,2.70
2018-12-16T15:18:57.849Z,2.70
2018-12-16T15:21:30.300Z,2.70
2018-12-16T15:24:02.737Z,2.70
2018-12-16T15:26:35.160Z,2.60
2018-12-16T15:29:07.608Z,2.60
2018-12-16T15:31:40.065Z,2.60
2018-12-16T15:34:12.509Z,2.60
2018-12-16T15:36:45.299Z,2.60
2018-12-16T15:39:17.827Z,2.60
2018-12-16T15:41:50.333Z,2.60
2018-12-16T15:44:23.260Z,2.60
2018-12-16T15:46:55.721Z,2.60
2018-12-16T15:49:28.197Z,2.60
2018-12-16T15:52:00.692Z,2.60
2018-12-16T15:54:33.139Z,2.60
2018-12-16T15:57:05.607Z,2.70
2018-12-16T15:59:38.041Z,2.70
2018-12-16T16:02:10.468Z,2.70
2018-12-16T16:04:43.021Z,2.70
2018-12-16T16:07:15.458Z,2.70
2018-12-16T16:09:48.023Z,2.70
2018-12-16T16:12:20.550Z,2.70
2018-12-16T16:14:52.982Z,2.70
2018-12-16T16:17:25.569Z,2.80
2018-12-16T16:19:58.039Z,2.80
2018-12-16T16:22:30.535Z,2.80
2018-12-16T16:25:02.959Z,2.80
2018-12-16T16:27:35.386Z,2.80
2018-12-16T16:30:08.098Z,2.80
2018-12-16T16:32:40.833Z,2.80
2018-12-16T16:35:13.279Z,2.80
2018-12-16T16:37:45.716Z,2.80
2018-12-16T16:40:18.137Z,2.80
2018-12-16T16:42:50.836Z,2.90
2018-12-16T16:45:23.250Z,2.90
2018-12-16T16:47:55.701Z,2.90
2018-12-16T16:50:28.122Z,2.90
2018-12-16T16:53:00.560Z,2.90
2018-12-16T16:55:33.234Z,2.90
2018-12-16T16:58:05.655Z,2.90
2018-12-16T17:00:38.079Z,2.90
2018-12-16T17:03:10.512Z,2.90
2018-12-16T17:05:42.931Z,2.90
2018-12-16T17:08:15.716Z,2.90
2018-12-16T17:10:48.389Z,2.90
2018-12-16T17:13:20.827Z,2.90
2018-12-16T17:15:53.708Z,2.90
2018-12-16T17:18:26.399Z,2.90
2018-12-16T17:20:58.801Z,2.90
2018-12-16T17:23:31.240Z,2.90
2018-12-16T17:26:03.680Z,2.80
2018-12-16T17:28:36.121Z,2.80
2018-12-16T17:31:08.643Z,2.70
2018-12-16T17:33:41.073Z,2.60
2018-12-16T17:36:13.488Z,2.60
2018-12-16T17:38:45.925Z,2.50
2018-12-16T17:41:18.679Z,2.50
2018-12-16T17:43:51.422Z,2.40
2018-12-16T17:46:23.871Z,2.40
2018-12-16T17:48:56.597Z,2.40
2018-12-16T17:51:29.011Z,2.30
2018-12-16T17:54:01.440Z,2.30
2018-12-16T17:56:37.002Z,2.20
2018-12-16T17:59:08.338Z,2.20
2018-12-16T18:01:40.854Z,2.10
2018-12-16T18:04:13.292Z,2.10
2018-12-16T18:06:45.727Z,2.10
2018-12-16T18:09:18.149Z,2.10
2018-12-16T18:11:50.618Z,2.10
2018-12-16T18:14:23.049Z,2.10
2018-12-16T18:16:55.872Z,2.00
2018-12-16T18:19:28.751Z,2.00
2018-12-16T18:22:01.489Z,2.00
2018-12-16T18:24:34.401Z,2.00
2018-12-16T18:27:07.208Z,2.00
2018-12-16T18:29:39.686Z,2.00
2018-12-16T18:32:12.768Z,2.00
2018-12-16T18:34:45.247Z,2.00
2018-12-16T18:37:17.711Z,1.90
2018-12-16T18:39:50.128Z,2.00
2018-12-16T18:42:22.620Z,2.00
2018-12-16T18:44:55.040Z,2.00
2018-12-16T18:47:27.484Z,2.10
2018-12-16T18:50:00.595Z,2.10
2018-12-16T18:52:33.255Z,2.10
2018-12-16T18:55:05.697Z,2.10
2018-12-16T18:57:38.425Z,2.10
2018-12-16T19:00:10.890Z,2.10
2018-12-16T19:02:43.319Z,2.10
2018-12-16T19:05:15.761Z,2.10
2018-12-16T19:07:48.193Z,2.10
2018-12-16T19:10:20.615Z,2.10
2018-12-16T19:12:53.056Z,2.10
2018-12-16T19:15:26.256Z,2.20
2018-12-16T19:17:58.681Z,2.20
2018-12-16T19:20:31.409Z,2.20
2018-12-16T19:23:03.858Z,2.20
2018-12-16T19:25:36.270Z,2.20
2018-12-16T19:28:08.712Z,2.10
2018-12-16T19:30:41.495Z,2.10
2018-12-16T19:33:14.495Z,2.00
2018-12-16T19:35:46.922Z,2.00
2018-12-16T19:38:19.361Z,2.00
2018-12-16T19:40:51.837Z,2.00
2018-12-16T19:43:24.282Z,2.00
2018-12-16T19:45:56.741Z,2.00
2018-12-16T19:48:29.456Z,2.00
2018-12-16T19:51:02.322Z,2.00
2018-12-16T19:53:34.999Z,1.90
2018-12-16T19:56:07.767Z,1.90
2018-12-16T19:58:40.223Z,1.90
2018-12-16T20:01:12.935Z,1.90
2018-12-16T20:03:45.368Z,1.90
2018-12-16T20:06:17.856Z,1.90
2018-12-16T20:08:50.286Z,1.90
2018-12-16T20:11:23.761Z,1.90
2018-12-16T20:16:34.936Z,1.90
2018-12-16T20:19:07.412Z,1.90
2018-12-16T20:21:40.064Z,1.90
2018-12-16T20:24:12.514Z,1.80
2018-12-16T20:26:45.140Z,1.80
2018-12-16T20:29:17.565Z,1.80
2018-12-16T20:31:49.976Z,1.80
2018-12-16T20:34:23.097Z,1.80
2018-12-16T20:36:55.757Z,1.80
2018-12-16T20:39:28.225Z,1.70
2018-12-16T20:42:00.711Z,1.70
2018-12-16T20:44:33.147Z,1.70
2018-12-16T20:47:05.871Z,1.80
2018-12-16T20:49:38.295Z,1.70
2018-12-16T20:52:10.764Z,1.70
2018-12-16T20:54:43.220Z,1.70
2018-12-16T20:57:18.849Z,1.70
2018-12-16T20:59:50.849Z,1.70
2018-12-16T21:02:23.442Z,1.70
2018-12-16T21:04:55.878Z,1.70
2018-12-16T21:07:28.305Z,1.70
2018-12-16T21:10:01.025Z,1.70
